sensor_id;sensor_type;location;lat;lon;timestamp;pressure;altitude;pressure_sealevel;temperature;humidity
20620;BME280;10469;42.720;23.252;2022-09-09T00:00:46;95091.63;;;18.36;100.00
20620;BME280;10469;42.720;23.252;2022-09-09T00:06:02;95081.06;;;18.29;100.00
20620;BME280;10469;42.720;23.252;2022-09-09T00:11:12;95087.31;;;18.29;100.00
20620;BME280;10469;42.720;23.252;2022-09-09T00:13:46;95083.56;;;18.20;100.00
20620;BME280;10469;42.720;23.252;2022-09-09T00:16:22;95079.28;;;18.04;100.00
20620;BME280;10469;42.720;23.252;2022-09-09T00:19:12;95085.19;;;18.21;100.00
20620;BME280;10469;42.720;23.252;2022-09-09T00:24:44;95066.06;;;17.92;100.00
20620;BME280;10469;42.720;23.252;2022-09-09T00:29:58;95056.28;;;17.96;100.00
20620;BME280;10469;42.720;23.252;2022-09-09T00:32:29;95040.56;;;17.93;100.00
20620;BME280;10469;42.720;23.252;2022-09-09T00:35:03;95044.09;;;17.89;100.00
20620;BME280;10469;42.720;23.252;2022-09-09T00:37:29;95041.41;;;17.84;100.00
20620;BME280;10469;42.720;23.252;2022-09-09T00:39:59;95050.63;;;17.83;100.00
20620;BME280;10469;42.720;23.252;2022-09-09T00:42:41;95041.41;;;17.73;100.00
20620;BME280;10469;42.720;23.252;2022-09-09T00:45:25;95047.66;;;17.84;100.00
20620;BME280;10469;42.720;23.252;2022-09-09T00:47:55;95061.72;;;17.91;100.00
20620;BME280;10469;42.720;23.252;2022-09-09T00:56:36;95048.53;;;17.54;100.00
20620;BME280;10469;42.720;23.252;2022-09-09T01:01:36;95054.75;;;17.60;100.00
20620;BME280;10469;42.720;23.252;2022-09-09T01:04:06;95052.59;;;17.56;100.00
20620;BME280;10469;42.720;23.252;2022-09-09T01:06:38;95060.19;;;17.54;100.00
20620;BME280;10469;42.720;23.252;2022-09-09T01:09:22;95057.53;;;17.44;100.00
20620;BME280;10469;42.720;23.252;2022-09-09T01:12:17;95059.41;;;17.44;100.00
20620;BME280;10469;42.720;23.252;2022-09-09T01:14:52;95059.41;;;17.44;100.00
20620;BME280;10469;42.720;23.252;2022-09-09T01:17:46;95064.31;;;17.32;100.00
20620;BME280;10469;42.720;23.252;2022-09-09T01:23:16;95050.19;;;17.35;100.00
20620;BME280;10469;42.720;23.252;2022-09-09T01:26:08;95054.56;;;17.30;100.00
20620;BME280;10469;42.720;23.252;2022-09-09T01:28:38;95066.75;;;17.38;100.00
20620;BME280;10469;42.720;23.252;2022-09-09T01:31:05;95048.09;;;17.11;100.00
20620;BME280;10469;42.720;23.252;2022-09-09T01:33:32;95071.63;;;17.31;100.00
20620;BME280;10469;42.720;23.252;2022-09-09T01:36:02;95074.63;;;17.24;100.00
20620;BME280;10469;42.720;23.252;2022-09-09T01:38:30;95067.59;;;17.13;100.00
20620;BME280;10469;42.720;23.252;2022-09-09T01:40:56;95065.97;;;17.07;100.00
20620;BME280;10469;42.720;23.252;2022-09-09T01:43:24;95061.09;;;17.04;100.00
20620;BME280;10469;42.720;23.252;2022-09-09T01:45:53;95077.66;;;16.97;100.00
20620;BME280;10469;42.720;23.252;2022-09-09T01:48:21;95075.47;;;16.89;100.00
20620;BME280;10469;42.720;23.252;2022-09-09T01:50:48;95081.69;;;16.95;100.00
20620;BME280;10469;42.720;23.252;2022-09-09T01:53:15;95076.28;;;17.00;100.00
20620;BME280;10469;42.720;23.252;2022-09-09T01:55:50;95087.66;;;16.97;100.00
20620;BME280;10469;42.720;23.252;2022-09-09T02:01:27;95072.75;;;16.74;100.00
20620;BME280;10469;42.720;23.252;2022-09-09T02:03:57;95076.25;;;16.79;100.00
20620;BME280;10469;42.720;23.252;2022-09-09T02:08:59;95075.19;;;16.96;100.00
20620;BME280;10469;42.720;23.252;2022-09-09T02:11:27;95063.25;;;16.92;100.00
20620;BME280;10469;42.720;23.252;2022-09-09T02:14:01;95058.66;;;16.82;100.00
20620;BME280;10469;42.720;23.252;2022-09-09T02:16:42;95066.50;;;16.84;100.00
20620;BME280;10469;42.720;23.252;2022-09-09T02:19:11;95058.41;;;16.78;100.00
20620;BME280;10469;42.720;23.252;2022-09-09T02:21:39;95063.28;;;16.87;100.00
20620;BME280;10469;42.720;23.252;2022-09-09T02:24:07;95059.50;;;16.72;100.00
20620;BME280;10469;42.720;23.252;2022-09-09T02:26:38;95061.91;;;16.79;100.00
20620;BME280;10469;42.720;23.252;2022-09-09T02:29:08;95063.56;;;16.80;100.00
20620;BME280;10469;42.720;23.252;2022-09-09T02:31:36;95062.16;;;16.67;100.00
20620;BME280;10469;42.720;23.252;2022-09-09T02:34:05;95070.31;;;16.72;100.00
20620;BME280;10469;42.720;23.252;2022-09-09T02:36:33;95082.47;;;16.65;100.00
20620;BME280;10469;42.720;23.252;2022-09-09T02:38:59;95085.44;;;16.58;100.00
20620;BME280;10469;42.720;23.252;2022-09-09T02:41:31;95084.59;;;16.58;100.00
20620;BME280;10469;42.720;23.252;2022-09-09T02:43:57;95072.44;;;16.60;100.00
20620;BME280;10469;42.720;23.252;2022-09-09T02:46:44;95075.16;;;16.65;100.00
20620;BME280;10469;42.720;23.252;2022-09-09T02:52:02;95080.31;;;16.72;100.00
20620;BME280;10469;42.720;23.252;2022-09-09T02:54:36;95076.25;;;16.64;100.00
20620;BME280;10469;42.720;23.252;2022-09-09T02:57:16;95078.94;;;16.69;100.00
20620;BME280;10469;42.720;23.252;2022-09-09T02:59:44;95076.25;;;16.69;100.00
20620;BME280;10469;42.720;23.252;2022-09-09T03:02:10;95071.91;;;16.63;100.00
20620;BME280;10469;42.720;23.252;2022-09-09T03:04:38;95085.44;;;16.63;100.00
20620;BME280;10469;42.720;23.252;2022-09-09T03:07:04;95080.81;;;16.43;100.00
20620;BME280;10469;42.720;23.252;2022-09-09T03:09:30;95065.38;;;16.44;100.00
20620;BME280;10469;42.720;23.252;2022-09-09T03:11:58;95079.19;;;16.58;100.00
20620;BME280;10469;42.720;23.252;2022-09-09T03:14:23;95080.00;;;16.53;100.00
20620;BME280;10469;42.720;23.252;2022-09-09T03:16:52;95083.28;;;16.50;100.00
20620;BME280;10469;42.720;23.252;2022-09-09T03:19:18;95077.84;;;16.50;100.00
20620;BME280;10469;42.720;23.252;2022-09-09T03:21:45;95080.00;;;16.53;100.00
20620;BME280;10469;42.720;23.252;2022-09-09T03:24:12;95084.88;;;16.56;100.00
20620;BME280;10469;42.720;23.252;2022-09-09T03:26:38;95072.69;;;16.53;100.00
20620;BME280;10469;42.720;23.252;2022-09-09T03:29:05;95077.28;;;16.48;100.00
20620;BME280;10469;42.720;23.252;2022-09-09T03:31:34;95047.50;;;16.33;100.00
20620;BME280;10469;42.720;23.252;2022-09-09T03:34:01;95054.03;;;16.37;100.00
20620;BME280;10469;42.720;23.252;2022-09-09T03:36:27;95067.03;;;16.50;100.00
20620;BME280;10469;42.720;23.252;2022-09-09T03:38:56;95048.00;;;16.14;100.00
20620;BME280;10469;42.720;23.252;2022-09-09T03:41:25;95063.19;;;16.36;100.00
20620;BME280;10469;42.720;23.252;2022-09-09T03:43:51;95068.09;;;16.39;100.00
20620;BME280;10469;42.720;23.252;2022-09-09T03:46:18;95085.41;;;16.33;100.00
20620;BME280;10469;42.720;23.252;2022-09-09T03:48:43;95082.13;;;16.25;100.00
20620;BME280;10469;42.720;23.252;2022-09-09T03:51:10;95087.53;;;16.30;100.00
20620;BME280;10469;42.720;23.252;2022-09-09T03:53:36;95093.47;;;16.22;100.00
20620;BME280;10469;42.720;23.252;2022-09-09T03:56:04;95078.31;;;16.16;100.00
20620;BME280;10469;42.720;23.252;2022-09-09T03:58:33;95081.31;;;16.25;100.00
20620;BME280;10469;42.720;23.252;2022-09-09T04:01:01;95069.69;;;16.29;100.00
20620;BME280;10469;42.720;23.252;2022-09-09T04:03:28;95081.59;;;16.34;100.00
20620;BME280;10469;42.720;23.252;2022-09-09T04:05:54;95087.53;;;16.30;100.00
20620;BME280;10469;42.720;23.252;2022-09-09T04:08:21;95095.44;;;16.42;100.00
20620;BME280;10469;42.720;23.252;2022-09-09T04:10:48;95071.03;;;16.22;100.00
20620;BME280;10469;42.720;23.252;2022-09-09T04:13:15;95078.91;;;16.28;100.00
20620;BME280;10469;42.720;23.252;2022-09-09T04:15:43;95078.09;;;16.38;100.00
20620;BME280;10469;42.720;23.252;2022-09-09T04:18:09;95081.38;;;16.55;100.00
20620;BME280;10469;42.720;23.252;2022-09-09T04:20:35;95067.56;;;16.57;100.00
20620;BME280;10469;42.720;23.252;2022-09-09T04:23:01;95082.75;;;16.68;100.00
20620;BME280;10469;42.720;23.252;2022-09-09T04:25:27;95071.63;;;16.54;100.00
20620;BME280;10469;42.720;23.252;2022-09-09T04:27:56;95093.59;;;16.84;100.00
20620;BME280;10469;42.720;23.252;2022-09-09T04:30:22;95092.53;;;16.90;100.00
20620;BME280;10469;42.720;23.252;2022-09-09T04:32:48;95080.59;;;17.16;100.00
20620;BME280;10469;42.720;23.252;2022-09-09T04:35:14;95082.19;;;17.53;100.00
20620;BME280;10469;42.720;23.252;2022-09-09T04:37:40;95071.31;;;17.48;100.00
20620;BME280;10469;42.720;23.252;2022-09-09T04:40:07;95074.25;;;17.77;100.00
20620;BME280;10469;42.720;23.252;2022-09-09T04:42:38;95064.31;;;17.37;100.00
20620;BME280;10469;42.720;23.252;2022-09-09T04:45:07;95082.19;;;17.43;100.00
20620;BME280;10469;42.720;23.252;2022-09-09T04:47:36;95075.13;;;17.47;100.00
20620;BME280;10469;42.720;23.252;2022-09-09T04:50:02;95074.91;;;17.28;100.00
20620;BME280;10469;42.720;23.252;2022-09-09T04:52:28;95068.28;;;17.80;100.00
20620;BME280;10469;42.720;23.252;2022-09-09T04:54:53;95067.72;;;17.88;100.00
20620;BME280;10469;42.720;23.252;2022-09-09T04:57:19;95075.03;;;18.42;100.00
20620;BME280;10469;42.720;23.252;2022-09-09T04:59:45;95056.03;;;18.82;100.00
20620;BME280;10469;42.720;23.252;2022-09-09T05:02:11;95066.22;;;19.58;100.00
20620;BME280;10469;42.720;23.252;2022-09-09T05:04:37;95051.25;;;20.27;100.00
20620;BME280;10469;42.720;23.252;2022-09-09T05:07:03;95054.50;;;21.38;100.00
20620;BME280;10469;42.720;23.252;2022-09-09T05:09:28;95042.25;;;20.46;100.00
20620;BME280;10469;42.720;23.252;2022-09-09T05:11:54;95053.66;;;20.29;100.00
20620;BME280;10469;42.720;23.252;2022-09-09T05:14:21;95066.44;;;20.34;100.00
20620;BME280;10469;42.720;23.252;2022-09-09T05:16:47;95062.84;;;20.57;100.00
20620;BME280;10469;42.720;23.252;2022-09-09T05:19:15;95057.09;;;21.10;100.00
20620;BME280;10469;42.720;23.252;2022-09-09T05:21:40;95046.75;;;21.72;100.00
20620;BME280;10469;42.720;23.252;2022-09-09T05:24:07;95051.19;;;22.37;100.00
20620;BME280;10469;42.720;23.252;2022-09-09T05:26:32;95046.25;;;22.62;100.00
20620;BME280;10469;42.720;23.252;2022-09-09T05:28:58;95062.00;;;22.42;100.00
20620;BME280;10469;42.720;23.252;2022-09-09T05:31:25;95062.69;;;22.48;100.00
20620;BME280;10469;42.720;23.252;2022-09-09T05:33:52;95047.50;;;22.78;100.00
20620;BME280;10469;42.720;23.252;2022-09-09T05:36:20;95049.75;;;23.74;100.00
20620;BME280;10469;42.720;23.252;2022-09-09T05:38:46;95062.63;;;24.88;100.00
20620;BME280;10469;42.720;23.252;2022-09-09T05:41:13;95065.72;;;22.83;100.00
20620;BME280;10469;42.720;23.252;2022-09-09T05:43:41;95054.31;;;23.03;100.00
20620;BME280;10469;42.720;23.252;2022-09-09T05:46:18;95070.00;;;22.75;100.00
20620;BME280;10469;42.720;23.252;2022-09-09T05:48:45;95065.50;;;23.38;100.00
20620;BME280;10469;42.720;23.252;2022-09-09T05:51:14;95057.78;;;23.17;100.00
20620;BME280;10469;42.720;23.252;2022-09-09T05:53:43;95059.84;;;22.89;100.00
20620;BME280;10469;42.720;23.252;2022-09-09T05:56:11;95066.13;;;23.35;100.00
20620;BME280;10469;42.720;23.252;2022-09-09T05:58:39;95060.81;;;23.38;100.00
20620;BME280;10469;42.720;23.252;2022-09-09T06:03:33;95071.84;;;25.10;100.00
20620;BME280;10469;42.720;23.252;2022-09-09T06:06:00;95079.72;;;25.46;97.71
20620;BME280;10469;42.720;23.252;2022-09-09T06:08:27;95066.59;;;25.60;93.43
20620;BME280;10469;42.720;23.252;2022-09-09T06:10:53;95058.97;;;25.74;94.51
20620;BME280;10469;42.720;23.252;2022-09-09T06:13:19;95055.97;;;26.35;90.68
20620;BME280;10469;42.720;23.252;2022-09-09T06:15:51;95059.59;;;27.73;75.21
20620;BME280;10469;42.720;23.252;2022-09-09T06:18:18;95071.25;;;25.77;95.40
20620;BME280;10469;42.720;23.252;2022-09-09T06:21:03;95064.56;;;25.31;99.14
20620;BME280;10469;42.720;23.252;2022-09-09T06:23:33;95076.88;;;26.27;96.41
20620;BME280;10469;42.720;23.252;2022-09-09T06:26:04;95080.69;;;24.98;100.00
20620;BME280;10469;42.720;23.252;2022-09-09T06:28:32;95051.50;;;24.67;100.00
20620;BME280;10469;42.720;23.252;2022-09-09T06:30:59;95075.03;;;24.68;100.00
20620;BME280;10469;42.720;23.252;2022-09-09T06:33:25;95071.78;;;25.53;94.17
20620;BME280;10469;42.720;23.252;2022-09-09T06:35:51;95065.69;;;25.04;97.49
20620;BME280;10469;42.720;23.252;2022-09-09T06:38:18;95064.63;;;26.75;89.31
20620;BME280;10469;42.720;23.252;2022-09-09T06:40:53;95065.03;;;25.97;91.54
20620;BME280;10469;42.720;23.252;2022-09-09T06:43:21;95044.88;;;25.03;94.05
20620;BME280;10469;42.720;23.252;2022-09-09T06:46:14;95061.03;;;24.78;99.40
20620;BME280;10469;42.720;23.252;2022-09-09T06:48:40;95058.28;;;24.96;96.90
20620;BME280;10469;42.720;23.252;2022-09-09T06:51:20;95067.56;;;26.41;89.80
20620;BME280;10469;42.720;23.252;2022-09-09T06:53:54;95065.03;;;28.31;74.04
20620;BME280;10469;42.720;23.252;2022-09-09T06:56:28;95080.88;;;27.31;76.18
20620;BME280;10469;42.720;23.252;2022-09-09T06:58:55;95072.28;;;27.66;72.45
20620;BME280;10469;42.720;23.252;2022-09-09T07:01:25;95080.81;;;27.19;77.05
20620;BME280;10469;42.720;23.252;2022-09-09T07:03:52;95077.16;;;26.05;83.73
20620;BME280;10469;42.720;23.252;2022-09-09T07:06:25;95076.38;;;27.26;75.91
20620;BME280;10469;42.720;23.252;2022-09-09T07:08:59;95067.00;;;26.86;79.01
20620;BME280;10469;42.720;23.252;2022-09-09T07:11:31;95041.81;;;27.50;75.06
20620;BME280;10469;42.720;23.252;2022-09-09T07:13:58;95063.16;;;27.53;72.84
20620;BME280;10469;42.720;23.252;2022-09-09T07:16:25;95055.50;;;28.04;67.90
20620;BME280;10469;42.720;23.252;2022-09-09T07:18:51;95068.94;;;26.64;78.26
20620;BME280;10469;42.720;23.252;2022-09-09T07:21:18;95053.69;;;31.31;58.47
20620;BME280;10469;42.720;23.252;2022-09-09T07:23:44;95059.34;;;31.19;50.83
20620;BME280;10469;42.720;23.252;2022-09-09T07:26:12;95053.78;;;29.13;57.48
20620;BME280;10469;42.720;23.252;2022-09-09T07:28:39;95053.50;;;30.18;55.12
20620;BME280;10469;42.720;23.252;2022-09-09T07:31:06;95050.22;;;29.69;57.79
20620;BME280;10469;42.720;23.252;2022-09-09T07:33:34;95039.25;;;30.52;53.49
20620;BME280;10469;42.720;23.252;2022-09-09T07:36:18;95039.81;;;31.70;49.51
20620;BME280;10469;42.720;23.252;2022-09-09T07:38:59;95048.47;;;28.31;58.62
20620;BME280;10469;42.720;23.252;2022-09-09T07:41:43;95052.56;;;28.98;60.73
20620;BME280;10469;42.720;23.252;2022-09-09T07:44:14;95065.19;;;29.12;59.54
20620;BME280;10469;42.720;23.252;2022-09-09T07:46:41;95037.00;;;29.34;56.96
20620;BME280;10469;42.720;23.252;2022-09-09T07:49:29;95035.03;;;31.90;48.19
20620;BME280;10469;42.720;23.252;2022-09-09T07:51:54;95036.06;;;31.04;49.21
20620;BME280;10469;42.720;23.252;2022-09-09T07:54:20;95039.28;;;30.36;51.99
20620;BME280;10469;42.720;23.252;2022-09-09T07:56:49;95053.88;;;28.77;58.48
20620;BME280;10469;42.720;23.252;2022-09-09T07:59:15;95055.03;;;28.14;61.01
20620;BME280;10469;42.720;23.252;2022-09-09T08:01:47;95054.66;;;28.77;59.91
20620;BME280;10469;42.720;23.252;2022-09-09T08:04:17;95054.56;;;28.00;62.13
20620;BME280;10469;42.720;23.252;2022-09-09T08:06:45;95064.22;;;27.27;66.40
20620;BME280;10469;42.720;23.252;2022-09-09T08:09:11;95049.56;;;26.22;76.77
20620;BME280;10469;42.720;23.252;2022-09-09T08:11:39;95065.09;;;26.57;76.15
20620;BME280;10469;42.720;23.252;2022-09-09T08:14:06;95059.16;;;27.50;70.98
20620;BME280;10469;42.720;23.252;2022-09-09T08:16:35;95052.25;;;28.02;65.35
20620;BME280;10469;42.720;23.252;2022-09-09T08:19:04;95059.84;;;27.47;66.04
20620;BME280;10469;42.720;23.252;2022-09-09T08:21:31;95060.75;;;27.97;65.38
20620;BME280;10469;42.720;23.252;2022-09-09T08:23:59;95048.91;;;29.22;60.27
20620;BME280;10469;42.720;23.252;2022-09-09T08:26:31;95049.88;;;27.55;64.21
20620;BME280;10469;42.720;23.252;2022-09-09T08:28:59;95055.69;;;27.74;66.18
20620;BME280;10469;42.720;23.252;2022-09-09T08:31:27;95046.69;;;29.00;57.74
20620;BME280;10469;42.720;23.252;2022-09-09T08:33:54;95041.16;;;29.84;54.91
20620;BME280;10469;42.720;23.252;2022-09-09T08:36:22;95034.25;;;28.05;59.77
20620;BME280;10469;42.720;23.252;2022-09-09T08:38:53;95041.06;;;29.53;56.69
20620;BME280;10469;42.720;23.252;2022-09-09T08:41:37;95044.03;;;28.39;60.55
20620;BME280;10469;42.720;23.252;2022-09-09T08:52:37;95028.50;;;31.20;49.87
20620;BME280;10469;42.720;23.252;2022-09-09T08:57:54;95018.59;;;32.50;44.53
20620;BME280;10469;42.720;23.252;2022-09-09T09:00:21;95018.19;;;31.37;47.29
20620;BME280;10469;42.720;23.252;2022-09-09T09:03:42;95033.38;;;32.08;44.16
20620;BME280;10469;42.720;23.252;2022-09-09T09:08:59;95034.47;;;30.68;51.03
20620;BME280;10469;42.720;23.252;2022-09-09T09:11:26;95026.00;;;32.42;45.12
20620;BME280;10469;42.720;23.252;2022-09-09T09:13:53;95032.06;;;33.35;43.74
20620;BME280;10469;42.720;23.252;2022-09-09T09:16:35;95032.81;;;32.22;45.47
20620;BME280;10469;42.720;23.252;2022-09-09T09:19:04;95014.66;;;31.20;47.55
20620;BME280;10469;42.720;23.252;2022-09-09T09:21:44;95020.22;;;34.12;41.28
20620;BME280;10469;42.720;23.252;2022-09-09T09:24:19;95016.19;;;33.35;41.41
20620;BME280;10469;42.720;23.252;2022-09-09T09:26:45;95016.16;;;31.99;44.67
20620;BME280;10469;42.720;23.252;2022-09-09T09:29:20;95012.47;;;31.49;45.87
20620;BME280;10469;42.720;23.252;2022-09-09T09:31:55;95025.06;;;30.53;49.58
20620;BME280;10469;42.720;23.252;2022-09-09T09:34:24;95010.31;;;32.04;47.26
20620;BME280;10469;42.720;23.252;2022-09-09T09:36:56;95015.63;;;31.28;48.98
20620;BME280;10469;42.720;23.252;2022-09-09T09:39:30;95010.91;;;29.76;50.88
20620;BME280;10469;42.720;23.252;2022-09-09T09:41:56;95015.13;;;30.17;52.53
20620;BME280;10469;42.720;23.252;2022-09-09T09:44:26;95008.19;;;30.93;49.01
20620;BME280;10469;42.720;23.252;2022-09-09T09:47:04;94976.28;;;30.13;50.31
20620;BME280;10469;42.720;23.252;2022-09-09T09:49:30;95000.13;;;29.86;51.97
20620;BME280;10469;42.720;23.252;2022-09-09T09:52:02;94994.03;;;29.21;54.01
20620;BME280;10469;42.720;23.252;2022-09-09T09:54:33;95001.00;;;29.31;54.77
20620;BME280;10469;42.720;23.252;2022-09-09T09:57:10;94996.06;;;28.68;58.43
20620;BME280;10469;42.720;23.252;2022-09-09T09:59:37;94987.28;;;28.38;61.13
20620;BME280;10469;42.720;23.252;2022-09-09T10:02:24;94992.22;;;27.95;65.65
20620;BME280;10469;42.720;23.252;2022-09-09T10:05:21;94999.09;;;28.14;62.99
20620;BME280;10469;42.720;23.252;2022-09-09T10:07:59;95010.75;;;27.29;72.23
20620;BME280;10469;42.720;23.252;2022-09-09T10:10:34;95019.50;;;26.56;75.15
20620;BME280;10469;42.720;23.252;2022-09-09T10:13:13;95018.44;;;27.02;74.93
20620;BME280;10469;42.720;23.252;2022-09-09T10:15:54;95024.56;;;26.45;81.66
20620;BME280;10469;42.720;23.252;2022-09-09T10:21:44;95020.47;;;26.21;85.30
20620;BME280;10469;42.720;23.252;2022-09-09T10:26:35;95012.00;;;26.06;90.26
20620;BME280;10469;42.720;23.252;2022-09-09T10:29:18;95017.38;;;25.93;91.94
20620;BME280;10469;42.720;23.252;2022-09-09T10:32:05;95018.97;;;25.56;96.51
20620;BME280;10469;42.720;23.252;2022-09-09T10:34:58;95026.34;;;25.64;95.90
20620;BME280;10469;42.720;23.252;2022-09-09T10:43:19;95030.84;;;25.69;96.38
20620;BME280;10469;42.720;23.252;2022-09-09T10:49:10;95035.81;;;25.93;96.94
20620;BME280;10469;42.720;23.252;2022-09-09T10:51:47;95035.69;;;25.81;99.03
20620;BME280;10469;42.720;23.252;2022-09-09T11:00:01;95021.47;;;25.87;99.97
20620;BME280;10469;42.720;23.252;2022-09-09T11:02:33;95012.59;;;25.82;100.00
20620;BME280;10469;42.720;23.252;2022-09-09T11:07:49;95021.72;;;25.56;100.00
20620;BME280;10469;42.720;23.252;2022-09-09T11:10:44;95017.53;;;25.97;100.00
20620;BME280;10469;42.720;23.252;2022-09-09T11:13:17;95020.75;;;25.52;100.00
20620;BME280;10469;42.720;23.252;2022-09-09T11:15:49;95006.84;;;26.04;100.00
20620;BME280;10469;42.720;23.252;2022-09-09T11:18:21;95004.75;;;26.01;100.00
20620;BME280;10469;42.720;23.252;2022-09-09T11:21:01;95001.31;;;26.34;100.00
20620;BME280;10469;42.720;23.252;2022-09-09T11:23:42;94989.75;;;26.19;99.78
20620;BME280;10469;42.720;23.252;2022-09-09T11:26:18;95006.41;;;26.23;100.00
20620;BME280;10469;42.720;23.252;2022-09-09T11:29:27;95001.41;;;26.16;100.00
20620;BME280;10469;42.720;23.252;2022-09-09T11:32:20;94984.34;;;26.32;100.00
20620;BME280;10469;42.720;23.252;2022-09-09T11:40:26;94955.75;;;26.74;96.77
20620;BME280;10469;42.720;23.252;2022-09-09T11:43:27;94949.66;;;26.69;96.08
20620;BME280;10469;42.720;23.252;2022-09-09T11:45:56;94932.34;;;26.47;96.64
20620;BME280;10469;42.720;23.252;2022-09-09T11:48:37;94933.41;;;27.09;94.67
20620;BME280;10469;42.720;23.252;2022-09-09T11:51:09;94914.91;;;26.64;94.16
20620;BME280;10469;42.720;23.252;2022-09-09T11:53:46;94930.50;;;27.51;91.54
20620;BME280;10469;42.720;23.252;2022-09-09T11:56:24;94943.00;;;27.36;93.86
20620;BME280;10469;42.720;23.252;2022-09-09T11:59:38;94925.69;;;28.09;89.12
20620;BME280;10469;42.720;23.252;2022-09-09T12:01:46;94931.56;;;29.60;75.74
20620;BME280;10469;42.720;23.252;2022-09-09T12:04:37;94929.63;;;30.28;70.44
20620;BME280;10469;42.720;23.252;2022-09-09T12:12:36;94917.94;;;29.08;82.82
20620;BME280;10469;42.720;23.252;2022-09-09T12:17:45;94903.91;;;27.80;91.10
20620;BME280;10469;42.720;23.252;2022-09-09T12:28:22;94898.53;;;28.76;86.36
20620;BME280;10469;42.720;23.252;2022-09-09T12:30:58;94899.03;;;28.38;89.78
20620;BME280;10469;42.720;23.252;2022-09-09T12:33:36;94894.47;;;27.44;94.35
20620;BME280;10469;42.720;23.252;2022-09-09T12:36:27;94898.25;;;27.39;97.48
20620;BME280;10469;42.720;23.252;2022-09-09T12:38:57;94893.31;;;27.33;97.49
20620;BME280;10469;42.720;23.252;2022-09-09T12:41:26;94888.72;;;27.49;98.31
20620;BME280;10469;42.720;23.252;2022-09-09T12:44:09;94884.97;;;28.31;92.87
20620;BME280;10469;42.720;23.252;2022-09-09T12:46:44;94876.88;;;28.10;94.96
20620;BME280;10469;42.720;23.252;2022-09-09T12:51:50;94871.56;;;29.29;87.55
20620;BME280;10469;42.720;23.252;2022-09-09T12:54:16;94886.66;;;28.75;88.66
20620;BME280;10469;42.720;23.252;2022-09-09T12:56:46;94871.91;;;28.84;87.32
20620;BME280;10469;42.720;23.252;2022-09-09T12:59:38;94863.59;;;28.40;87.92
20620;BME280;10469;42.720;23.252;2022-09-09T13:02:22;94871.97;;;28.03;91.88
20620;BME280;10469;42.720;23.252;2022-09-09T13:04:51;94876.28;;;28.16;91.98
20620;BME280;10469;42.720;23.252;2022-09-09T13:07:18;94880.13;;;28.52;89.71
20620;BME280;10469;42.720;23.252;2022-09-09T13:09:47;94868.53;;;28.46;85.60
20620;BME280;10469;42.720;23.252;2022-09-09T13:12:22;94865.56;;;28.27;89.24
20620;BME280;10469;42.720;23.252;2022-09-09T13:14:55;94870.03;;;29.32;81.52
20620;BME280;10469;42.720;23.252;2022-09-09T13:19:48;94856.94;;;29.44;79.96
20620;BME280;10469;42.720;23.252;2022-09-09T13:22:35;94833.75;;;28.58;82.11
20620;BME280;10469;42.720;23.252;2022-09-09T13:25:26;94845.94;;;27.76;91.45
20620;BME280;10469;42.720;23.252;2022-09-09T13:28:03;94842.84;;;28.18;91.25
20620;BME280;10469;42.720;23.252;2022-09-09T13:30:37;94834.91;;;28.29;90.60
20620;BME280;10469;42.720;23.252;2022-09-09T13:35:54;94848.47;;;27.81;94.75
20620;BME280;10469;42.720;23.252;2022-09-09T13:38:20;94840.06;;;27.90;96.28
20620;BME280;10469;42.720;23.252;2022-09-09T13:41:18;94834.28;;;28.07;95.90
20620;BME280;10469;42.720;23.252;2022-09-09T13:43:47;94814.91;;;28.19;94.00
20620;BME280;10469;42.720;23.252;2022-09-09T13:46:28;94827.22;;;27.45;99.23
20620;BME280;10469;42.720;23.252;2022-09-09T13:48:56;94827.28;;;27.97;96.67
20620;BME280;10469;42.720;23.252;2022-09-09T13:51:41;94807.78;;;28.03;96.18
20620;BME280;10469;42.720;23.252;2022-09-09T13:54:11;94823.69;;;28.49;92.74
20620;BME280;10469;42.720;23.252;2022-09-09T13:56:40;94800.28;;;28.43;90.41
20620;BME280;10469;42.720;23.252;2022-09-09T13:59:10;94813.22;;;28.15;92.26
20620;BME280;10469;42.720;23.252;2022-09-09T14:01:36;94815.06;;;28.11;89.78
20620;BME280;10469;42.720;23.252;2022-09-09T14:04:03;94810.53;;;28.03;90.28
20620;BME280;10469;42.720;23.252;2022-09-09T14:06:29;94813.31;;;27.66;93.34
20620;BME280;10469;42.720;23.252;2022-09-09T14:08:55;94798.81;;;27.93;91.56
20620;BME280;10469;42.720;23.252;2022-09-09T14:11:21;94799.38;;;27.99;90.94
20620;BME280;10469;42.720;23.252;2022-09-09T14:13:47;94812.81;;;28.00;90.42
20620;BME280;10469;42.720;23.252;2022-09-09T14:16:16;94803.47;;;27.52;93.08
20620;BME280;10469;42.720;23.252;2022-09-09T14:18:43;94809.41;;;27.55;92.73
20620;BME280;10469;42.720;23.252;2022-09-09T14:21:09;94803.59;;;27.32;94.74
20620;BME280;10469;42.720;23.252;2022-09-09T14:23:35;94782.91;;;27.62;92.27
20620;BME280;10469;42.720;23.252;2022-09-09T14:26:01;94791.91;;;27.35;91.94
20620;BME280;10469;42.720;23.252;2022-09-09T14:28:27;94786.63;;;27.42;90.15
20620;BME280;10469;42.720;23.252;2022-09-09T14:30:54;94790.81;;;27.76;89.78
20620;BME280;10469;42.720;23.252;2022-09-09T14:33:19;94794.97;;;27.82;90.44
20620;BME280;10469;42.720;23.252;2022-09-09T14:35:45;94772.13;;;27.57;92.01
20620;BME280;10469;42.720;23.252;2022-09-09T14:38:11;94789.19;;;27.87;91.97
20620;BME280;10469;42.720;23.252;2022-09-09T14:40:37;94781.53;;;27.68;90.85
20620;BME280;10469;42.720;23.252;2022-09-09T14:43:04;94790.03;;;27.75;91.42
20620;BME280;10469;42.720;23.252;2022-09-09T14:45:31;94803.22;;;27.82;91.53
20620;BME280;10469;42.720;23.252;2022-09-09T14:47:56;94796.03;;;28.06;90.61